Time;durP1;ratioP1;P1;durP2;ratioP2;P2;SDS_P1;SDS_P2;PMS_P1;PMS_P2;Temp;Humidity;BMP_temperature;BMP_pressure;BME280_temperature;BME280_humidity;BME280_pressure;Samples;Min_cycle;Max_cycle;Signal;HPM_P1;HPM_P2
2022/01/26 00:06:34;;;;;;;4.80;3.53;;;4.60;99.90;;;;;;5013889;28;20549;-68
2022/01/26 00:09:00;;;;;;;2.33;2.13;;;4.60;99.90;;;;;;5013540;28;20454;-69
2022/01/26 00:11:27;;;;;;;4.47;3.63;;;4.60;99.90;;;;;;5013554;28;20829;-68
2022/01/26 00:13:53;;;;;;;5.23;2.47;;;4.50;99.90;;;;;;5013532;28;20403;-68
2022/01/26 00:16:35;;;;;;;6.90;3.40;;;4.50;99.90;;;;;;5013675;28;20465;-68
2022/01/26 00:19:03;;;;;;;5.17;3.60;;;4.50;99.90;;;;;;5013555;28;20172;-68
2022/01/26 00:24:09;;;;;;;4.27;2.90;;;4.50;99.90;;;;;;5013002;28;20411;-69
2022/01/26 00:27:01;;;;;;;4.77;3.03;;;4.40;99.90;;;;;;5013478;28;20176;-69
2022/01/26 00:29:22;;;;;;;6.13;4.47;;;4.50;99.90;;;;;;5012651;28;20881;-68
2022/01/26 00:40:14;;;;;;;7.20;5.30;;;4.40;99.90;;;;;;5012954;28;20426;-69
2022/01/26 00:42:41;;;;;;;7.90;3.27;;;4.50;99.90;;;;;;5012860;28;20403;-68
2022/01/26 00:45:09;;;;;;;6.10;4.13;;;4.50;99.90;;;;;;5012859;28;20407;-68
2022/01/26 00:47:35;;;;;;;4.43;3.67;;;4.60;99.90;;;;;;5012852;28;20786;-69
2022/01/26 00:50:07;;;;;;;6.73;3.50;;;4.50;99.90;;;;;;5012388;28;20451;-69
2022/01/26 00:52:44;;;;;;;5.53;3.77;;;4.50;99.90;;;;;;5012842;28;20487;-69
2022/01/26 00:55:20;;;;;;;5.53;3.73;;;4.50;99.90;;;;;;5012468;28;20411;-68
2022/01/26 00:57:46;;;;;;;7.90;4.00;;;4.50;99.90;;;;;;4995044;28;20414;-67
2022/01/26 01:00:21;;;;;;;6.83;2.87;;;4.60;99.90;;;;;;5012301;28;20471;-68
2022/01/26 01:02:48;;;;;;;10.13;6.13;;;4.60;99.90;;;;;;5012621;28;20423;-68
2022/01/26 01:05:20;;;;;;;5.63;3.30;;;4.60;99.90;;;;;;5012361;28;20447;-68
2022/01/26 01:07:48;;;;;;;6.30;4.17;;;4.50;99.90;;;;;;5012310;28;20437;-68
2022/01/26 01:10:17;;;;;;;6.47;3.50;;;4.50;99.90;;;;;;5012153;28;20470;-68
2022/01/26 01:12:44;;;;;;;7.43;4.23;;;4.50;99.90;;;;;;5012458;28;20776;-69
2022/01/26 01:15:11;;;;;;;4.20;3.90;;;4.50;99.90;;;;;;5011962;28;20457;-66
2022/01/26 01:17:42;;;;;;;10.07;3.33;;;4.50;99.90;;;;;;5012396;28;20414;-66
2022/01/26 01:20:29;;;;;;;13.47;4.80;;;4.50;99.90;;;;;;5011730;28;20421;-67
2022/01/26 01:23:26;;;;;;;3.63;2.30;;;4.40;99.90;;;;;;4994239;28;20968;-66
2022/01/26 01:26:19;;;;;;;5.73;3.73;;;4.40;99.90;;;;;;5011817;28;20905;-67
2022/01/26 01:28:57;;;;;;;6.57;3.67;;;4.30;99.90;;;;;;5011689;28;20423;-69
2022/01/26 01:31:42;;;;;;;7.30;4.10;;;4.30;99.90;;;;;;5011943;28;20879;-67
2022/01/26 01:34:08;;;;;;;6.80;2.87;;;4.30;99.90;;;;;;5011816;28;20461;-68
2022/01/26 01:36:37;;;;;;;4.60;3.80;;;4.30;99.90;;;;;;5011941;28;20407;-68
2022/01/26 01:39:03;;;;;;;9.13;5.03;;;4.30;99.90;;;;;;5011530;28;20399;-68
2022/01/26 01:41:29;;;;;;;4.10;2.77;;;4.30;99.90;;;;;;5011723;28;20421;-67
2022/01/26 01:43:54;;;;;;;11.60;4.07;;;4.30;99.90;;;;;;5011558;28;20988;-67
2022/01/26 01:46:20;;;;;;;4.57;3.47;;;4.30;99.90;;;;;;5011791;28;20238;-68
2022/01/26 01:48:45;;;;;;;7.73;2.27;;;4.30;99.90;;;;;;5011703;28;20176;-67
2022/01/26 01:51:14;;;;;;;5.80;3.20;;;4.30;99.90;;;;;;5011567;28;20667;-67
2022/01/26 01:53:42;;;;;;;5.67;3.47;;;4.30;99.90;;;;;;5011658;28;20176;-68
2022/01/26 01:56:10;;;;;;;8.33;4.63;;;4.30;99.90;;;;;;5011941;28;20408;-66
2022/01/26 01:58:36;;;;;;;7.40;2.93;;;4.30;99.90;;;;;;5011831;28;20414;-68
2022/01/26 02:01:03;;;;;;;6.63;3.73;;;4.30;99.90;;;;;;5011621;28;20519;-66
2022/01/26 02:03:29;;;;;;;5.57;3.50;;;4.20;99.90;;;;;;5011369;28;20561;-69
2022/01/26 02:05:54;;;;;;;3.40;2.53;;;4.20;99.90;;;;;;5011429;28;20536;-67
2022/01/26 02:08:20;;;;;;;4.83;3.47;;;4.20;99.90;;;;;;5011341;28;20508;-66
2022/01/26 02:10:46;;;;;;;5.33;3.00;;;4.20;99.90;;;;;;5011339;28;20208;-66
2022/01/26 02:13:26;;;;;;;9.57;4.10;;;4.20;99.90;;;;;;5011491;28;20176;-66
2022/01/26 02:18:36;;;;;;;5.70;2.70;;;4.20;99.90;;;;;;5011569;28;20415;-67
2022/01/26 02:51:22;;;;;;;4.67;1.90;;;4.20;99.90;;;;;;5013152;28;20553;-68
2022/01/26 02:54:17;;;;;;;2.50;1.97;;;4.10;99.90;;;;;;5014614;28;20407;-67
2022/01/26 02:56:55;;;;;;;3.47;2.67;;;4.20;99.90;;;;;;5014430;28;20439;-67
2022/01/26 02:59:52;;;;;;;12.30;3.23;;;4.20;99.90;;;;;;5014320;28;20490;-67
2022/01/26 03:02:27;;;;;;;8.83;4.10;;;4.20;99.90;;;;;;5014623;28;20446;-67
2022/01/26 03:04:56;;;;;;;11.03;4.47;;;4.10;99.90;;;;;;4997265;28;20803;-67
2022/01/26 03:10:00;;;;;;;3.40;2.10;;;4.10;99.90;;;;;;5014002;28;20435;-67
2022/01/26 03:12:44;;;;;;;8.10;2.60;;;4.10;99.90;;;;;;5014243;28;20415;-67
2022/01/26 03:15:28;;;;;;;6.37;4.87;;;4.10;99.90;;;;;;5021146;22;20570;-74
2022/01/26 03:18:15;;;;;;;10.37;3.63;;;4.10;99.90;;;;;;4975700;28;20409;-74
2022/01/26 03:20:41;;;;;;;5.10;4.20;;;4.10;99.90;;;;;;4975048;28;20788;-74
2022/01/26 03:28:57;;;;;;;6.10;5.30;;;4.10;99.90;;;;;;4956407;29;20915;-75
2022/01/26 03:34:02;;;;;;;5.07;3.13;;;4.10;99.90;;;;;;4955847;28;20772;-73
2022/01/26 03:36:31;;;;;;;8.03;4.43;;;4.10;99.90;;;;;;4955603;28;20420;-76
2022/01/26 03:39:06;;;;;;;4.77;3.33;;;4.00;99.90;;;;;;4955775;29;20449;-74
2022/01/26 03:41:52;;;;;;;11.47;4.13;;;4.00;99.90;;;;;;4955599;29;20424;-76
2022/01/26 03:44:17;;;;;;;5.93;2.97;;;4.00;99.90;;;;;;4955687;28;20430;-72
2022/01/26 03:46:45;;;;;;;11.17;4.27;;;4.00;99.90;;;;;;4955632;29;20440;-73
2022/01/26 03:49:11;;;;;;;8.10;4.40;;;4.00;99.90;;;;;;4955450;29;20421;-74
2022/01/26 03:51:38;;;;;;;9.20;6.10;;;4.00;99.90;;;;;;4955318;29;20517;-74
2022/01/26 03:54:04;;;;;;;6.80;3.43;;;4.00;99.90;;;;;;4955625;28;20481;-73
2022/01/26 03:56:30;;;;;;;6.23;4.03;;;4.00;99.90;;;;;;4955487;29;20413;-74
2022/01/26 03:58:56;;;;;;;8.40;4.53;;;4.00;99.90;;;;;;4955487;29;20426;-74
2022/01/26 04:01:21;;;;;;;6.33;3.70;;;4.00;99.90;;;;;;4955609;29;20204;-74
2022/01/26 04:03:47;;;;;;;18.63;4.20;;;3.90;99.90;;;;;;4955582;28;20305;-74
2022/01/26 04:06:12;;;;;;;12.30;5.00;;;3.90;99.90;;;;;;4938572;29;20170;-74
2022/01/26 04:08:41;;;;;;;7.63;4.10;;;4.00;99.90;;;;;;4955403;29;20594;-74
2022/01/26 04:13:44;;;;;;;6.30;3.53;;;3.90;99.90;;;;;;4955484;28;20438;-74
2022/01/26 04:16:10;;;;;;;17.47;4.37;;;3.90;99.90;;;;;;4955508;29;20401;-75
2022/01/26 04:18:38;;;;;;;6.07;4.40;;;3.90;99.90;;;;;;4955378;29;20169;-74
2022/01/26 04:23:57;;;;;;;6.80;4.00;;;3.90;99.90;;;;;;4955560;28;20440;-73
2022/01/26 04:26:30;;;;;;;8.80;4.93;;;3.90;99.90;;;;;;4955407;29;20444;-75
2022/01/26 04:29:04;;;;;;;9.30;3.90;;;3.90;99.90;;;;;;4955110;29;20433;-75
2022/01/26 04:31:29;;;;;;;8.20;4.10;;;3.90;99.90;;;;;;4954893;29;20956;-75
2022/01/26 04:33:55;;;;;;;11.10;5.20;;;3.90;99.90;;;;;;4954743;28;20425;-75
2022/01/26 04:36:30;;;;;;;5.57;4.57;;;3.90;99.90;;;;;;4955064;29;20170;-75
2022/01/26 04:39:00;;;;;;;8.67;5.20;;;3.90;99.90;;;;;;4954653;29;20667;-75
2022/01/26 04:41:41;;;;;;;14.60;4.00;;;4.00;99.90;;;;;;4954637;29;20469;-75
2022/01/26 04:44:28;;;;;;;7.77;4.07;;;4.00;99.90;;;;;;4954499;28;20433;-73
2022/01/26 04:46:55;;;;;;;7.13;4.60;;;3.80;99.90;;;;;;4954744;29;20414;-74
2022/01/26 04:49:20;;;;;;;14.43;5.57;;;3.80;99.90;;;;;;4953777;28;20905;-74
2022/01/26 04:51:46;;;;;;;8.87;5.57;;;3.80;99.90;;;;;;4954428;29;20456;-75
2022/01/26 04:54:12;;;;;;;6.53;4.87;;;3.80;99.90;;;;;;4954362;28;20228;-74
2022/01/26 04:56:38;;;;;;;7.97;4.50;;;3.80;99.90;;;;;;4954363;29;20453;-75
2022/01/26 04:59:04;;;;;;;9.90;5.60;;;3.80;99.90;;;;;;4954081;29;20921;-74
2022/01/26 05:01:29;;;;;;;8.90;6.47;;;3.80;99.90;;;;;;4954283;29;20174;-74
2022/01/26 05:03:55;;;;;;;9.63;4.63;;;3.70;99.90;;;;;;4953965;28;20216;-75
2022/01/26 05:06:21;;;;;;;17.50;5.50;;;3.70;99.90;;;;;;4936969;29;20281;-75
2022/01/26 05:08:46;;;;;;;7.37;3.87;;;3.70;99.90;;;;;;4953948;29;20193;-74
2022/01/26 05:11:16;;;;;;;11.73;3.97;;;3.70;99.90;;;;;;4954063;29;20632;-74
2022/01/26 05:13:42;;;;;;;6.07;4.20;;;3.80;99.90;;;;;;4953836;28;20201;-74
2022/01/26 05:16:09;;;;;;;6.67;3.93;;;3.70;99.90;;;;;;4953881;29;20406;-73
2022/01/26 05:18:34;;;;;;;4.13;2.80;;;3.60;99.90;;;;;;4953861;29;20163;-75
2022/01/26 05:21:00;;;;;;;5.00;4.00;;;3.60;99.90;;;;;;4953971;29;20955;-75
2022/01/26 05:23:26;;;;;;;9.20;2.83;;;3.60;99.90;;;;;;4953661;28;20174;-74
2022/01/26 05:25:51;;;;;;;4.87;2.93;;;3.70;99.90;;;;;;4953966;29;20417;-75
2022/01/26 05:28:17;;;;;;;7.67;4.43;;;3.70;99.90;;;;;;4953824;29;20213;-74
2022/01/26 05:30:42;;;;;;;10.87;5.10;;;3.70;99.90;;;;;;4953706;29;20198;-75
2022/01/26 05:33:08;;;;;;;7.73;5.40;;;3.60;99.90;;;;;;4936751;29;20265;-74
2022/01/26 05:35:33;;;;;;;11.30;4.00;;;3.60;99.90;;;;;;4954073;28;20197;-75
2022/01/26 05:37:59;;;;;;;15.47;5.43;;;3.70;99.90;;;;;;4954189;29;20178;-75
2022/01/26 05:40:26;;;;;;;5.27;4.20;;;3.70;99.90;;;;;;4953794;29;20177;-77
2022/01/26 05:42:51;;;;;;;7.27;4.87;;;3.60;99.90;;;;;;4953801;29;20406;-74
2022/01/26 05:45:24;;;;;;;6.63;4.60;;;3.70;99.90;;;;;;4953669;28;20504;-73
2022/01/26 05:47:49;;;;;;;6.10;4.80;;;3.70;99.90;;;;;;4953742;29;20677;-74
2022/01/26 05:50:15;;;;;;;10.13;5.73;;;3.60;99.90;;;;;;4953673;29;20477;-75
2022/01/26 05:52:41;;;;;;;11.80;6.40;;;3.60;99.90;;;;;;4953949;29;20273;-75
2022/01/26 05:55:07;;;;;;;4.30;3.17;;;3.60;99.90;;;;;;4953779;28;20654;-77
2022/01/26 05:57:32;;;;;;;9.73;4.30;;;3.50;99.90;;;;;;4953788;29;20174;-75
2022/01/26 05:59:58;;;;;;;7.40;3.90;;;3.60;99.90;;;;;;4952930;29;20421;-75
2022/01/26 06:02:23;;;;;;;4.13;3.33;;;3.60;99.90;;;;;;4953810;29;20174;-75
2022/01/26 06:04:49;;;;;;;10.03;4.13;;;3.60;99.90;;;;;;4953856;28;20182;-73
2022/01/26 06:07:14;;;;;;;5.40;3.37;;;3.50;99.90;;;;;;4954161;29;20182;-75
2022/01/26 06:09:40;;;;;;;3.23;2.57;;;3.40;99.90;;;;;;4954195;29;20237;-75
2022/01/26 06:12:06;;;;;;;8.63;5.00;;;3.50;99.90;;;;;;4954578;29;20202;-75
2022/01/26 06:14:32;;;;;;;5.50;3.57;;;3.50;99.90;;;;;;4953386;28;20273;-74
2022/01/26 06:16:57;;;;;;;4.57;3.70;;;3.40;99.90;;;;;;4953505;29;20939;-73
2022/01/26 06:19:22;;;;;;;3.57;3.23;;;3.40;99.90;;;;;;4953345;29;20177;-74
2022/01/26 06:21:48;;;;;;;7.93;3.30;;;3.40;99.90;;;;;;4953394;29;20642;-75
2022/01/26 06:24:13;;;;;;;7.70;3.40;;;3.50;99.90;;;;;;4953543;28;20245;-74
2022/01/26 06:26:41;;;;;;;5.27;4.73;;;3.40;99.90;;;;;;4953568;29;20205;-74
2022/01/26 06:29:06;;;;;;;11.63;4.37;;;3.40;99.90;;;;;;4953497;29;20579;-75
2022/01/26 06:31:34;;;;;;;5.03;2.93;;;3.40;99.90;;;;;;4953142;29;20590;-75
2022/01/26 06:34:02;;;;;;;11.70;4.63;;;3.40;99.90;;;;;;4953203;28;20186;-75
2022/01/26 06:36:28;;;;;;;7.33;4.00;;;3.30;99.90;;;;;;4953238;29;20924;-77
2022/01/26 06:38:53;;;;;;;8.27;4.50;;;3.40;99.90;;;;;;4937222;28;20440;-75
2022/01/26 06:41:24;;;;;;;7.90;4.63;;;3.50;99.90;;;;;;4965390;28;20585;-75
2022/01/26 06:43:56;;;;;;;5.40;4.00;;;3.40;99.90;;;;;;4954411;28;20301;-74
2022/01/26 06:46:35;;;;;;;7.53;3.50;;;3.50;99.90;;;;;;4953198;29;20420;-74
2022/01/26 06:49:28;;;;;;;8.00;4.70;;;3.50;99.90;;;;;;4954225;28;20788;-74
2022/01/26 06:51:50;;;;;;;8.03;4.93;;;3.50;99.90;;;;;;4952945;29;20461;-73
2022/01/26 06:54:15;;;;;;;7.33;4.83;;;3.50;99.90;;;;;;4953295;29;20426;-74
2022/01/26 06:56:41;;;;;;;3.93;2.97;;;3.50;99.90;;;;;;4954435;28;20931;-74
2022/01/26 06:59:06;;;;;;;6.30;4.57;;;3.40;99.90;;;;;;4953107;29;20197;-74
2022/01/26 07:01:32;;;;;;;13.80;2.57;;;3.30;99.90;;;;;;4953121;29;20170;-76
2022/01/26 07:03:57;;;;;;;7.30;3.73;;;3.40;99.90;;;;;;4961921;28;20205;-75
2022/01/26 07:06:23;;;;;;;5.27;3.37;;;3.30;99.90;;;;;;4972372;28;20162;-75
2022/01/26 07:08:48;;;;;;;10.77;4.57;;;3.40;99.90;;;;;;4972526;28;20273;-76
2022/01/26 07:11:14;;;;;;;8.60;4.40;;;3.40;99.90;;;;;;4972663;28;20212;-76
2022/01/26 07:13:40;;;;;;;11.90;3.83;;;3.40;99.90;;;;;;4975267;28;20220;-75
2022/01/26 07:21:35;;;;;;;9.73;5.83;;;3.40;99.90;;;;;;4976206;28;20922;-75
2022/01/26 07:24:00;;;;;;;15.90;5.53;;;3.40;99.90;;;;;;4975588;28;20511;-75
2022/01/26 07:26:30;;;;;;;8.37;4.90;;;3.40;99.90;;;;;;4975444;28;20174;-75
2022/01/26 07:29:05;;;;;;;8.00;4.20;;;3.50;99.90;;;;;;4975382;28;20166;-74
2022/01/26 07:31:33;;;;;;;8.33;4.93;;;3.50;99.90;;;;;;4975198;28;20463;-75
2022/01/26 07:33:58;;;;;;;7.57;4.83;;;3.40;99.90;;;;;;4975339;28;20421;-74
2022/01/26 07:36:24;;;;;;;6.03;3.40;;;3.40;99.90;;;;;;4975282;28;20455;-74
2022/01/26 07:38:52;;;;;;;15.10;6.67;;;3.30;99.90;;;;;;4957586;28;20252;-75
2022/01/26 07:41:18;;;;;;;14.23;7.20;;;3.30;99.90;;;;;;4974313;28;20533;-74
2022/01/26 07:43:44;;;;;;;9.03;5.00;;;3.40;99.90;;;;;;4956146;28;20500;-74
2022/01/26 07:46:10;;;;;;;10.10;5.97;;;3.60;99.90;;;;;;4956018;29;20406;-75
2022/01/26 07:48:36;;;;;;;19.73;5.57;;;3.40;99.90;;;;;;4971620;28;20181;-75
2022/01/26 07:51:01;;;;;;;8.70;4.97;;;3.50;99.90;;;;;;4974845;28;20445;-75
2022/01/26 07:53:27;;;;;;;12.87;3.73;;;3.50;99.90;;;;;;4974468;28;20221;-75
2022/01/26 07:55:52;;;;;;;6.03;5.53;;;3.50;99.90;;;;;;4974605;28;20282;-74
2022/01/26 07:58:19;;;;;;;13.77;5.50;;;3.60;99.90;;;;;;4975175;28;20173;-75
2022/01/26 08:00:45;;;;;;;9.40;5.43;;;3.60;99.90;;;;;;4974934;28;20181;-74
2022/01/26 08:03:11;;;;;;;15.00;5.60;;;3.60;99.90;;;;;;4974650;28;20750;-74
2022/01/26 08:05:37;;;;;;;13.50;7.10;;;3.60;99.90;;;;;;4974583;28;20193;-75
2022/01/26 08:08:02;;;;;;;6.80;4.90;;;3.60;99.90;;;;;;4974646;28;20178;-75
2022/01/26 08:10:28;;;;;;;7.57;4.87;;;3.50;99.90;;;;;;4957329;28;20464;-75
2022/01/26 08:12:54;;;;;;;6.10;4.80;;;3.60;99.90;;;;;;4974608;28;20447;-75
2022/01/26 08:15:19;;;;;;;9.43;4.47;;;3.60;99.90;;;;;;4964016;28;20234;-74
2022/01/26 08:17:45;;;;;;;8.30;4.60;;;3.60;99.90;;;;;;4955227;29;20171;-74
2022/01/26 08:20:10;;;;;;;9.70;5.20;;;3.50;99.90;;;;;;4955280;29;20553;-74
2022/01/26 08:22:37;;;;;;;9.30;5.73;;;3.50;99.90;;;;;;4954468;28;20538;-75
2022/01/26 08:25:03;;;;;;;9.57;4.53;;;3.60;99.90;;;;;;4954423;28;20253;-76
2022/01/26 08:27:34;;;;;;;53.43;25.90;;;3.60;99.90;;;;;;4954803;29;20885;-74
2022/01/26 08:30:07;;;;;;;75.43;40.67;;;4.80;99.90;;;;;;4960190;28;20417;-74
2022/01/26 08:32:33;;;;;;;24.13;14.27;;;4.90;99.90;;;;;;4974072;28;20907;-74
2022/01/26 08:34:58;;;;;;;63.93;27.90;;;4.20;99.90;;;;;;4973980;28;20421;-74
2022/01/26 08:37:24;;;;;;;13.90;8.17;;;4.60;99.90;;;;;;4974308;28;20177;-74
2022/01/26 08:39:49;;;;;;;11.00;4.23;;;3.90;99.90;;;;;;4973722;28;20181;-73
2022/01/26 08:42:14;;;;;;;16.53;5.93;;;3.60;99.90;;;;;;4973529;28;20270;-75
2022/01/26 08:44:40;;;;;;;4.50;3.40;;;3.80;99.90;;;;;;4973635;28;20193;-75
2022/01/26 08:47:06;;;;;;;12.30;5.17;;;3.60;99.90;;;;;;4956129;28;20523;-74
2022/01/26 08:49:32;;;;;;;12.60;5.43;;;3.50;99.90;;;;;;4973462;28;20173;-74
2022/01/26 08:51:58;;;;;;;10.73;5.37;;;3.60;99.90;;;;;;4973381;28;20189;-75
2022/01/26 08:54:23;;;;;;;8.57;3.90;;;3.70;99.90;;;;;;4973525;28;20421;-75
2022/01/26 08:56:50;;;;;;;11.67;4.27;;;3.70;99.90;;;;;;4973636;28;20402;-75
2022/01/26 08:59:17;;;;;;;8.90;3.50;;;3.60;99.90;;;;;;4973321;28;20174;-74
2022/01/26 09:01:43;;;;;;;8.00;4.60;;;3.60;99.90;;;;;;4973398;28;20772;-75
2022/01/26 09:04:08;;;;;;;16.53;4.93;;;3.70;99.90;;;;;;4956014;28;20443;-75
2022/01/26 09:06:39;;;;;;;5.80;5.10;;;3.70;99.90;;;;;;4973335;28;20182;-75
2022/01/26 09:09:07;;;;;;;6.60;4.40;;;3.80;99.90;;;;;;4973155;28;20200;-73
2022/01/26 09:11:35;;;;;;;9.37;5.37;;;3.80;99.90;;;;;;4973155;28;20526;-73
2022/01/26 09:14:07;;;;;;;7.60;3.43;;;3.70;99.90;;;;;;4972844;28;20436;-74
2022/01/26 09:16:33;;;;;;;9.07;3.27;;;3.70;99.90;;;;;;4973223;28;20484;-73
2022/01/26 09:19:05;;;;;;;6.93;4.03;;;3.80;99.90;;;;;;4955618;28;20499;-73
2022/01/26 09:21:31;;;;;;;10.50;5.30;;;3.80;99.90;;;;;;4973225;28;20280;-75
2022/01/26 09:23:56;;;;;;;5.87;5.30;;;3.70;99.90;;;;;;4973035;28;20429;-74
2022/01/26 09:26:22;;;;;;;9.97;4.80;;;3.60;99.90;;;;;;4973003;28;20232;-74
2022/01/26 09:28:47;;;;;;;7.77;5.17;;;3.60;99.90;;;;;;4973019;28;20174;-74
2022/01/26 09:31:13;;;;;;;9.70;5.57;;;3.80;99.90;;;;;;4976390;28;20613;-74
2022/01/26 09:33:39;;;;;;;10.10;5.53;;;3.90;99.90;;;;;;4976075;28;20672;-75
2022/01/26 09:36:04;;;;;;;13.63;4.10;;;4.00;99.90;;;;;;4977374;28;20460;-73
2022/01/26 09:38:30;;;;;;;6.50;3.30;;;3.90;99.90;;;;;;4976439;28;20679;-75
2022/01/26 09:40:55;;;;;;;9.50;4.30;;;4.10;99.90;;;;;;4973949;28;20296;-74
2022/01/26 09:43:21;;;;;;;13.13;5.20;;;3.70;99.90;;;;;;4973113;28;20629;-75
2022/01/26 09:45:47;;;;;;;6.13;4.50;;;4.00;99.90;;;;;;4971555;28;20181;-73
2022/01/26 09:48:13;;;;;;;15.03;5.70;;;3.90;99.90;;;;;;4972792;28;20197;-73
2022/01/26 09:50:44;;;;;;;9.73;4.10;;;3.80;99.90;;;;;;4972761;28;20468;-73
2022/01/26 09:53:12;;;;;;;7.73;3.83;;;3.90;99.90;;;;;;4972813;28;20546;-72
2022/01/26 09:55:42;;;;;;;6.97;4.20;;;3.90;99.90;;;;;;4972891;28;20504;-73
2022/01/26 10:00:44;;;;;;;7.80;6.23;;;3.90;99.90;;;;;;4986256;28;20787;-67
2022/01/26 10:03:10;;;;;;;6.40;4.87;;;3.90;99.90;;;;;;4991891;28;20400;-67
2022/01/26 10:05:38;;;;;;;5.33;3.43;;;3.90;99.90;;;;;;4991831;28;20260;-67
2022/01/26 10:08:14;;;;;;;7.23;3.33;;;3.70;99.90;;;;;;4991853;28;20165;-68
2022/01/26 10:16:04;;;;;;;4.80;3.13;;;3.70;99.90;;;;;;4972864;28;20224;-68
2022/01/26 10:18:32;;;;;;;13.97;5.00;;;3.70;99.90;;;;;;4972477;28;20448;-68
2022/01/26 10:21:01;;;;;;;9.13;4.70;;;3.90;99.90;;;;;;4972342;28;20496;-67
2022/01/26 10:23:29;;;;;;;10.87;4.73;;;3.80;99.90;;;;;;4972509;28;20420;-68
2022/01/26 10:26:03;;;;;;;2.23;2.03;;;3.80;99.90;;;;;;4972441;28;20770;-67
2022/01/26 10:28:56;;;;;;;6.67;3.83;;;3.90;99.90;;;;;;4972154;28;20546;-68
2022/01/26 10:31:28;;;;;;;8.03;3.63;;;3.90;99.90;;;;;;4967810;28;20461;-68
2022/01/26 10:33:54;;;;;;;7.27;4.93;;;3.90;99.90;;;;;;4972185;28;20464;-68
2022/01/26 10:36:20;;;;;;;8.33;3.40;;;4.00;99.90;;;;;;4972389;28;20405;-67
2022/01/26 10:38:57;;;;;;;5.23;3.70;;;4.10;99.90;;;;;;4972172;28;20874;-67
2022/01/26 10:41:22;;;;;;;6.97;3.77;;;4.30;99.90;;;;;;4972119;28;20173;-66
2022/01/26 10:43:50;;;;;;;5.53;2.20;;;4.20;99.90;;;;;;4972188;28;20405;-68
2022/01/26 10:46:38;;;;;;;3.63;3.07;;;4.20;99.90;;;;;;4964723;28;20258;-68
2022/01/26 10:54:38;;;;;;;7.57;3.37;;;4.50;99.90;;;;;;4975853;28;20511;-69
2022/01/26 10:57:07;;;;;;;4.50;3.47;;;4.20;99.90;;;;;;4975666;28;20520;-68
2022/01/26 10:59:34;;;;;;;6.80;3.17;;;4.10;99.90;;;;;;4975957;28;20527;-69
2022/01/26 11:02:08;;;;;;;3.93;3.53;;;4.20;99.90;;;;;;4975588;28;20412;-69
2022/01/26 11:04:36;;;;;;;4.03;3.17;;;4.10;99.90;;;;;;4978044;28;20844;-69
2022/01/26 11:07:04;;;;;;;4.37;2.40;;;4.10;99.90;;;;;;4994750;28;20408;-68
2022/01/26 11:09:33;;;;;;;3.73;3.03;;;4.00;99.90;;;;;;4994650;28;20428;-69
2022/01/26 11:12:07;;;;;;;5.13;2.20;;;4.00;99.90;;;;;;4994614;28;20454;-68
2022/01/26 11:14:47;;;;;;;3.00;2.70;;;3.90;99.90;;;;;;4992074;28;20417;-68
2022/01/26 11:17:29;;;;;;;2.40;2.20;;;4.00;99.90;;;;;;4975227;28;20789;-69
2022/01/26 11:19:57;;;;;;;3.30;2.00;;;4.00;99.90;;;;;;4975124;28;20429;-69
2022/01/26 11:22:28;;;;;;;3.07;2.30;;;4.00;99.90;;;;;;4975460;28;20812;-69
2022/01/26 11:24:55;;;;;;;2.10;1.67;;;3.90;99.90;;;;;;4975315;28;20413;-68
2022/01/26 11:27:20;;;;;;;4.70;2.90;;;3.70;99.90;;;;;;4975636;28;20414;-68
2022/01/26 11:29:50;;;;;;;5.93;2.60;;;3.80;99.90;;;;;;4975487;28;20447;-69
2022/01/26 11:32:28;;;;;;;1.97;1.70;;;3.80;99.90;;;;;;4975975;28;20217;-69
2022/01/26 11:34:55;;;;;;;2.30;1.20;;;3.60;99.90;;;;;;4976913;28;20484;-68
2022/01/26 11:37:37;;;;;;;4.30;2.10;;;3.60;99.90;;;;;;4994658;28;20414;-70
2022/01/26 11:45:26;;;;;;;5.87;2.33;;;3.50;99.90;;;;;;4975815;28;20420;-69
2022/01/26 11:48:01;;;;;;;3.13;2.43;;;3.40;99.90;;;;;;4975223;28;20448;-68
2022/01/26 11:50:29;;;;;;;6.93;6.00;;;3.40;99.90;;;;;;4970552;28;20457;-71
2022/01/26 11:53:15;;;;;;;12.53;5.67;;;3.30;99.90;;;;;;4984881;28;20448;-70
2022/01/26 11:55:49;;;;;;;2.77;2.30;;;3.50;99.90;;;;;;4989544;28;20830;-72
2022/01/26 11:58:33;;;;;;;3.37;1.80;;;3.40;99.90;;;;;;4988849;28;20421;-69
2022/01/26 12:03:59;;;;;;;3.47;2.60;;;3.40;99.90;;;;;;4975862;28;20452;-70
2022/01/26 12:06:29;;;;;;;2.53;2.33;;;3.30;99.90;;;;;;4975710;28;20515;-67
2022/01/26 12:08:58;;;;;;;4.03;2.20;;;3.20;99.90;;;;;;4975673;28;20433;-67
2022/01/26 12:11:25;;;;;;;6.10;2.30;;;3.30;99.90;;;;;;4975643;28;20539;-69
2022/01/26 12:13:58;;;;;;;4.87;2.23;;;3.30;99.90;;;;;;4976253;28;20401;-68
2022/01/26 12:16:34;;;;;;;3.93;2.23;;;3.30;99.90;;;;;;4975122;28;20417;-68
2022/01/26 12:19:28;;;;;;;7.50;4.30;;;3.20;99.90;;;;;;4970679;28;20931;-68
2022/01/26 12:33:33;;;;;;;3.83;3.53;;;3.10;99.90;;;;;;4975330;28;20475;-68
2022/01/26 12:35:55;;;;;;;3.60;1.70;;;3.20;99.90;;;;;;4973885;28;20774;-69
2022/01/26 12:38:50;;;;;;;3.10;2.40;;;3.10;99.90;;;;;;4976238;28;20414;-69
2022/01/26 12:43:52;;;;;;;2.63;1.60;;;3.30;99.90;;;;;;4992178;28;20755;-70
2022/01/26 12:46:23;;;;;;;7.83;4.30;;;3.40;99.90;;;;;;4993492;28;20168;-69
2022/01/26 12:48:53;;;;;;;8.03;2.67;;;3.40;99.90;;;;;;4974637;28;20445;-71
2022/01/26 12:51:20;;;;;;;2.40;2.20;;;3.50;99.90;;;;;;4973932;28;20452;-69
2022/01/26 12:53:54;;;;;;;5.60;3.80;;;3.40;99.90;;;;;;4973731;28;20409;-69
2022/01/26 12:56:23;;;;;;;3.47;2.60;;;3.50;99.90;;;;;;4973557;28;20405;-69
2022/01/26 12:58:59;;;;;;;4.60;3.40;;;3.20;99.90;;;;;;4973208;28;20448;-68
2022/01/26 13:01:25;;;;;;;3.23;2.53;;;3.10;99.90;;;;;;4973532;28;20408;-68
2022/01/26 13:03:56;;;;;;;3.13;1.53;;;3.20;99.90;;;;;;4972956;28;20417;-68
2022/01/26 13:06:24;;;;;;;6.13;2.90;;;3.10;99.90;;;;;;4973625;28;20236;-69
2022/01/26 13:08:52;;;;;;;4.50;1.83;;;3.20;99.90;;;;;;4972868;28;20464;-69
2022/01/26 13:11:34;;;;;;;3.47;3.17;;;3.30;99.90;;;;;;4972995;28;20449;-69
2022/01/26 13:14:21;;;;;;;5.57;2.90;;;3.10;99.90;;;;;;4973146;28;20413;-69
2022/01/26 13:36:22;;;;;;;6.10;2.50;;;2.80;99.90;;;;;;4972860;28;20459;-69
2022/01/26 13:39:11;;;;;;;4.60;3.07;;;2.80;99.90;;;;;;4972477;28;20445;-69
2022/01/26 13:41:57;;;;;;;4.27;2.40;;;3.00;99.90;;;;;;4972507;28;20919;-71
2022/01/26 13:44:54;;;;;;;3.20;2.33;;;3.00;99.90;;;;;;4972809;28;20405;-69
2022/01/26 13:50:21;;;;;;;5.13;3.20;;;3.00;99.90;;;;;;4972634;28;20492;-68
2022/01/26 13:52:54;;;;;;;8.20;4.50;;;3.10;99.90;;;;;;4972532;28;20401;-68
2022/01/26 13:58:17;;;;;;;6.00;2.67;;;3.00;99.90;;;;;;4972688;28;20409;-69
2022/01/26 14:00:40;;;;;;;6.00;3.80;;;3.00;99.90;;;;;;4972185;28;20193;-69
2022/01/26 14:03:08;;;;;;;13.57;5.43;;;2.90;99.90;;;;;;4972510;28;20958;-68
2022/01/26 14:05:34;;;;;;;4.80;2.93;;;2.90;99.90;;;;;;4962089;28;20429;-68
2022/01/26 14:08:00;;;;;;;3.70;1.90;;;2.90;99.90;;;;;;4957236;28;20436;-69
2022/01/26 14:10:26;;;;;;;8.53;2.90;;;3.00;99.90;;;;;;4971919;28;20224;-69
2022/01/26 14:12:51;;;;;;;11.00;3.90;;;3.10;99.90;;;;;;4972269;28;20420;-68
2022/01/26 14:15:35;;;;;;;5.53;3.23;;;3.10;99.90;;;;;;4972563;28;20265;-69
2022/01/26 14:18:11;;;;;;;6.33;4.23;;;3.20;99.90;;;;;;4972893;28;20177;-68
2022/01/26 14:21:07;;;;;;;14.13;4.93;;;3.00;99.90;;;;;;4972260;28;20471;-69
2022/01/26 14:26:12;;;;;;;4.70;3.23;;;2.90;99.90;;;;;;4976019;28;20463;-68
2022/01/26 14:28:37;;;;;;;10.50;3.63;;;2.70;99.90;;;;;;4976218;28;20432;-68
2022/01/26 14:33:56;;;;;;;8.33;3.40;;;2.70;99.90;;;;;;4976139;28;20165;-67
2022/01/26 14:36:45;;;;;;;5.23;2.43;;;2.80;99.90;;;;;;4976275;28;20793;-68
2022/01/26 14:39:45;;;;;;;6.80;2.93;;;2.80;99.90;;;;;;4975868;28;20432;-68
2022/01/26 14:54:01;;;;;;;6.57;3.07;;;2.80;99.90;;;;;;4975908;28;20408;-69
2022/01/26 15:21:53;;;;;;;4.57;3.73;;;2.60;99.90;;;;;;4970410;28;20509;-67
2022/01/26 15:32:03;;;;;;;5.93;4.57;;;2.50;99.90;;;;;;4975220;28;20459;-71
2022/01/26 15:52:55;;;;;;;3.67;3.33;;;2.50;99.90;;;;;;4974312;28;20477;-67
2022/01/26 15:58:31;;;;;;;8.80;3.80;;;2.50;99.90;;;;;;4975060;28;20475;-68
2022/01/26 16:06:58;;;;;;;20.77;4.30;;;2.60;99.90;;;;;;4974841;28;20463;-68
2022/01/26 16:20:22;;;;;;;13.13;4.33;;;2.50;99.90;;;;;;4974083;28;20463;-68
2022/01/26 16:39:23;;;;;;;14.30;6.47;;;2.50;99.90;;;;;;4993330;28;21002;-68
2022/01/26 17:12:17;;;;;;;12.73;5.50;;;2.50;99.90;;;;;;4973209;28;20503;-67
2022/01/26 17:47:39;;;;;;;21.70;8.60;;;2.50;99.90;;;;;;4988753;28;20424;-68
2022/01/26 18:07:13;;;;;;;19.40;10.10;;;2.50;99.90;;;;;;4972933;28;20459;-67
2022/01/26 18:15:21;;;;;;;28.67;8.53;;;2.70;99.90;;;;;;4972826;28;20540;-68
2022/01/26 18:17:57;;;;;;;29.67;10.17;;;2.60;99.90;;;;;;4972465;28;20409;-68
2022/01/26 18:25:58;;;;;;;31.07;12.40;;;2.80;99.90;;;;;;4972600;28;20459;-68
2022/01/26 18:39:36;;;;;;;25.30;10.40;;;2.70;99.90;;;;;;4972254;28;20196;-68
2022/01/26 18:50:07;;;;;;;16.00;10.47;;;2.70;99.90;;;;;;4972099;28;20520;-68
2022/01/26 18:52:32;;;;;;;23.20;9.50;;;2.80;99.90;;;;;;4971991;28;21034;-68
2022/01/26 18:54:58;;;;;;;36.63;9.87;;;2.80;99.90;;;;;;4955020;28;20931;-68
2022/01/26 18:57:25;;;;;;;23.70;10.00;;;2.80;99.90;;;;;;4972323;28;20409;-68